Latest Weather Observations for Cloncurry

IDQ60801

Issued at 1:05 pm EST Sunday 20 April 2014 (issued every 30 minutes, with the page automatically refreshed every 10 minutes)

About weather observations | Map of weather stations | Latest weather observations for QLD | Other Formats
Station Details ID: 029141 Name: CLONCURRY AIRPORT Lat: -20.67 Lon: 140.50 Height: 186.0 m
Data from the previous 72 hours. | See also: Recent months at Cloncurry
Date/Time
EST
Temp
°C
App
Temp
°C
Dew
Point
Rel
Hum
%
Delta-T
°C
Wind Press
QNH
hPa
Press
MSL
hPa
Rain
since 9 am
mm
Dir
 
Spd
km/h
Gust
km/h
Spd
kts
Gust
kts
20/01:00pm 32.6 27.4 3.5 16 15.1 SSE 20 30 11 16 1013.8 - 0.0
20/12:30pm 31.6 25.3 1.8 15 15.0 SE 24 32 13 17 1014.4 - 0.0
20/12:00pm 32.1 26.7 2.2 15 15.1 ESE 20 33 11 18 1015.0 1013.9 0.0
20/11:30am 31.1 24.6 0.5 14 15.0 SE 24 33 13 18 1015.7 - 0.0
20/11:00am 30.1 24.2 1.5 16 14.1 ESE 22 33 12 18 1016.0 - 0.0
20/10:30am 29.4 21.9 1.0 16 13.9 ESE 30 39 16 21 1016.1 - 0.0
20/10:00am 29.4 23.3 2.6 18 13.4 SE 24 32 13 17 1016.2 - 0.0
20/09:30am 28.1 21.5 2.3 19 12.8 SE 26 41 14 22 1016.1 - 0.0
20/09:00am 27.2 20.4 3.0 21 12.0 SE 28 35 15 19 1016.0 1015.0 0.0
20/08:30am 24.1 19.9 4.0 27 10.0 SSE 15 19 8 10 1015.6 - 0.0
20/08:00am 21.5 17.6 3.2 30 8.8 S 13 15 7 8 1015.4 - 0.0
20/07:30am 19.0 15.9 3.6 36 7.3 S 9 11 5 6 1015.0 - 0.0
20/07:00am 17.8 14.2 2.9 37 6.9 S 11 13 6 7 1014.8 - 0.0
20/06:30am 18.8 15.5 2.6 34 7.5 S 9 11 5 6 1014.6 - 0.0
20/06:00am 18.2 14.0 1.7 33 7.5 S 13 13 7 7 1014.0 1013.0 0.0
20/05:30am 19.3 16.0 2.2 32 7.9 S 9 11 5 6 1013.8 - 0.0
20/05:00am 19.1 15.3 1.6 31 8.0 S 11 13 6 7 1013.5 - 0.0
20/04:30am 20.3 16.4 1.2 28 8.7 S 11 13 6 7 1013.3 - 0.0
20/04:00am 20.3 16.0 0.7 27 8.9 S 13 15 7 8 1013.2 - 0.0
20/03:30am 20.6 15.8 0.4 26 9.1 S 15 15 8 8 1013.2 - 0.0
20/03:00am 21.3 16.8 -0.1 24 9.6 S 13 15 7 8 1013.2 1012.2 0.0
20/02:30am 21.6 16.7 -0.4 23 9.9 S 15 19 8 10 1013.2 - 0.0
20/02:00am 20.7 16.2 -0.6 24 9.4 S 13 15 7 8 1013.4 - 0.0
20/01:30am 20.9 16.4 -0.4 24 9.5 SSW 13 15 7 8 1013.7 - 0.0
20/01:00am 21.4 16.9 -0.6 23 9.8 SSW 13 15 7 8 1013.8 - 0.0
20/12:30am 21.2 16.3 -0.7 23 9.7 S 15 15 8 8 1013.8 - 0.0
20/12:00am 21.2 16.6 -0.7 23 9.7 S 13 15 7 8 1014.2 1013.1 0.0
 
Date/Time
EST
Temp
°C
App
Temp
°C
Dew
Point
Rel
Hum
%
Delta-T
°C
Wind Press
QNH
hPa
Press
MSL
hPa
Rain
since 9 am
mm
Dir
 
Spd
km/h
Gust
km/h
Spd
kts
Gust
kts
19/11:30pm 22.2 17.7 -0.5 22 10.2 S 13 15 7 8 1014.3 - 0.0
19/11:00pm 22.1 17.5 -1.2 21 10.3 S 13 15 7 8 1014.4 - 0.0
19/10:30pm 22.8 18.3 -0.6 21 10.6 S 13 15 7 8 1014.4 - 0.0
19/10:00pm 22.9 18.1 0.1 22 10.4 S 15 17 8 9 1014.4 - 0.0
19/09:30pm 23.3 19.4 1.0 23 10.4 S 11 13 6 7 1014.4 - 0.0
19/09:00pm 24.3 20.0 1.2 22 10.9 S 13 15 7 8 1014.2 1013.1 0.0
19/08:30pm 24.8 21.4 1.7 22 11.1 S 9 13 5 7 1013.8 - 0.0
19/08:00pm 25.5 22.8 2.9 23 11.1 S 6 7 3 4 1013.4 - 0.0
19/07:30pm 27.4 23.9 -1.5 15 13.3 ESE 7 9 4 5 1012.9 - 0.0
19/07:00pm 29.3 25.9 -0.9 14 14.2 SE 7 9 4 5 1012.6 - 0.0
19/06:30pm 30.8 27.0 -0.8 13 15.1 ESE 9 15 5 8 1012.4 - 0.0
19/06:00pm 32.2 29.0 -0.8 12 15.9 SSW 6 7 3 4 1012.2 1011.2 0.0
19/05:30pm 32.9 29.2 -0.2 12 16.2 SSW 9 17 5 9 1012.1 - 0.0
19/05:00pm 33.2 29.9 0.0 12 16.3 SE 7 17 4 9 1011.9 - 0.0
19/04:30pm 33.3 28.9 0.1 12 16.4 S 13 20 7 11 1012.0 - 0.0
19/04:00pm 33.3 28.1 0.1 12 16.4 S 17 26 9 14 1012.1 - 0.0
19/03:30pm 33.0 28.9 -0.2 12 16.3 SSW 11 19 6 10 1012.1 - 0.0
19/03:00pm 33.2 28.7 0.0 12 16.3 SSW 13 20 7 11 1012.4 1011.4 0.0
19/02:30pm 32.6 27.7 -0.5 12 16.1 SSE 15 24 8 13 1012.6 - 0.0
19/02:00pm 33.0 28.1 -0.2 12 16.3 S 15 26 8 14 1013.0 - 0.0
19/01:30pm 33.4 28.4 1.3 13 16.2 SSE 17 28 9 15 1013.6 - 0.0
19/01:00pm 31.8 26.6 0.0 13 15.5 SSE 17 24 9 13 1014.2 - 0.0
19/12:30pm 31.6 26.8 -0.1 13 15.4 E 15 26 8 14 1014.7 - 0.0
19/12:00pm 31.3 24.7 -0.4 13 15.3 SE 24 32 13 17 1015.4 1014.4 0.0
19/11:30am 31.2 25.1 0.6 14 15.0 ESE 22 30 12 16 1016.0 - 0.0
19/11:00am 29.8 23.2 -0.5 14 14.4 ESE 24 32 13 17 1016.5 - 0.0
19/10:30am 29.7 23.5 -0.6 14 14.4 ESE 22 32 12 17 1016.7 - 0.0
19/10:00am 28.4 20.9 -1.6 14 13.9 ESE 28 37 15 20 1017.0 - 0.0
19/09:30am 28.0 20.9 -1.0 15 13.5 SE 26 35 14 19 1017.0 - 0.0
19/09:00am 27.3 20.3 -0.7 16 13.0 SE 26 35 14 19 1017.0 1016.0 0.0
19/08:30am 26.4 19.8 -0.6 17 12.5 SE 24 32 13 17 1017.0 - 0.0
19/08:00am 22.6 18.5 -0.2 22 10.3 S 11 15 6 8 1016.9 - 0.0
19/07:30am 19.4 16.1 -1.1 25 8.9 S 6 7 3 4 1016.8 - 0.0
19/07:00am 18.0 13.9 -0.3 29 8.0 S 11 13 6 7 1016.4 - 0.0
19/06:30am 18.9 15.5 -0.5 27 8.5 SE 7 9 4 5 1016.1 - 0.0
19/06:00am 19.6 15.8 -0.9 25 8.9 SE 9 11 5 6 1015.7 1014.7 0.0
19/05:30am 19.5 15.3 -1.0 25 8.9 S 11 13 6 7 1015.1 - 0.0
19/05:00am 20.0 15.4 -1.2 24 9.2 SSW 13 15 7 8 1014.9 - 0.0
19/04:30am 20.5 15.9 -1.3 23 9.5 S 13 15 7 8 1014.9 - 0.0
19/04:00am 20.7 15.7 -1.2 23 9.6 S 15 17 8 9 1015.0 - 0.0
19/03:30am 21.0 16.3 -2.1 21 10.0 S 13 15 7 8 1015.0 - 0.0
19/03:00am 21.9 16.8 -2.0 20 10.4 S 15 17 8 9 1015.0 1013.9 0.0
19/02:30am 22.4 17.3 -2.3 19 10.7 S 15 19 8 10 1015.2 - 0.0
19/02:00am 22.7 17.6 -2.1 19 10.9 S 15 19 8 10 1015.3 - 0.0
19/01:30am 23.1 18.0 -1.8 19 11.0 S 15 17 8 9 1015.5 - 0.0
19/01:00am 23.2 18.2 -1.0 20 10.9 SSW 15 17 8 9 1015.8 - 0.0
19/12:30am 23.0 18.1 -0.5 21 10.6 SSW 15 17 8 9 1015.8 - 0.0
19/12:00am 23.8 18.8 -1.2 19 11.2 SSW 15 19 8 10 1016.0 1015.0 0.0
 
Date/Time
EST
Temp
°C
App
Temp
°C
Dew
Point
Rel
Hum
%
Delta-T
°C
Wind Press
QNH
hPa
Press
MSL
hPa
Rain
since 9 am
mm
Dir
 
Spd
km/h
Gust
km/h
Spd
kts
Gust
kts
18/11:30pm 24.6 19.2 -1.3 18 11.7 SSW 17 20 9 11 1016.0 - 0.0
18/11:00pm 24.6 19.5 -2.0 17 11.9 SSW 15 19 8 10 1016.1 - 0.0
18/10:30pm 25.2 19.8 -1.6 17 12.1 S 17 20 9 11 1016.0 - 0.0
18/10:00pm 24.3 19.5 -0.1 20 11.2 S 15 17 8 9 1015.9 - 0.0
18/09:30pm 23.8 19.6 1.4 23 10.6 S 13 15 7 8 1015.8 - 0.0
18/09:00pm 24.7 20.2 2.2 23 10.8 S 15 17 8 9 1015.7 1014.7 0.0
18/08:30pm 26.1 22.0 2.1 21 11.7 S 13 15 7 8 1015.5 - 0.0
18/08:00pm 28.2 24.4 1.7 18 13.0 SE 11 11 6 6 1015.1 - 0.0
18/07:30pm 28.2 24.4 1.7 18 13.0 S 11 11 6 6 1014.5 - 0.0
18/07:00pm 30.3 25.2 0.8 15 14.4 SSW 17 22 9 12 1014.0 - 0.0
18/06:30pm 31.5 26.4 0.8 14 15.1 S 17 20 9 11 1013.5 - 0.0
18/06:00pm 32.8 28.2 1.8 14 15.7 SSE 15 20 8 11 1013.1 1012.1 0.0
18/05:30pm 33.3 28.3 1.2 13 16.1 SE 17 24 9 13 1013.0 - 0.0
18/05:00pm 33.7 29.9 1.5 13 16.3 SW 11 17 6 9 1012.8 - 0.0
18/04:30pm 33.6 27.9 0.3 12 16.5 SSE 20 30 11 16 1012.8 - 0.0
18/04:00pm 34.1 29.5 1.8 13 16.5 S 15 20 8 11 1012.8 - 0.0
18/03:30pm 34.0 28.1 1.7 13 16.4 S 22 26 12 14 1012.8 - 0.0
18/03:00pm 34.1 30.1 2.8 14 16.2 S 13 20 7 11 1013.0 1012.0 0.0
18/02:30pm 33.4 28.5 2.3 14 15.9 SSW 17 24 9 13 1013.2 - 0.0
18/02:00pm 33.6 28.4 2.4 14 16.0 SSW 19 28 10 15 1013.6 - 0.0
18/01:30pm 33.1 28.6 2.0 14 15.8 SSE 15 33 8 18 1013.9 - 0.0
18/01:00pm 32.7 27.9 2.7 15 15.4 SE 17 28 9 15 1014.6 - 0.0
18/12:30pm 32.9 28.2 2.9 15 15.5 E 17 28 9 15 1015.1 - 0.0
18/12:00pm 32.0 26.9 3.1 16 14.8 E 19 30 10 16 1015.6 1014.6 0.0
18/11:30am 31.8 26.5 2.9 16 14.8 ESE 20 30 11 16 1016.0 - 0.0
18/11:00am 31.0 25.6 2.3 16 14.5 ESE 20 30 11 16 1016.3 - 0.0
18/10:30am 30.8 24.3 2.9 17 14.2 ESE 26 35 14 19 1016.7 - 0.0
18/10:00am 29.2 23.1 2.5 18 13.4 SE 24 32 13 17 1017.0 - 0.0
18/09:30am 28.3 21.6 1.7 18 13.0 ESE 26 35 14 19 1016.9 - 0.0
18/09:00am 27.1 20.0 1.5 19 12.4 SE 28 37 15 20 1016.6 1015.6 0.0
18/08:30am 26.5 20.2 1.7 20 12.0 SE 24 32 13 17 1016.5 - 0.0
18/08:00am 25.4 19.4 0.8 20 11.6 SE 22 30 12 16 1016.5 - 0.0
18/07:30am 24.3 18.7 -0.1 20 11.2 SE 19 28 10 15 1016.3 - 0.0
18/07:00am 23.6 18.7 -0.6 20 11.0 SE 15 20 8 11 1016.2 - 0.0
18/06:30am 22.4 17.6 0.3 23 10.1 S 15 19 8 10 1016.0 - 0.0
18/06:00am 20.9 16.9 0.7 26 9.2 S 11 15 6 8 1015.7 1014.7 0.0
18/05:30am 21.5 17.2 1.2 26 9.4 S 13 19 7 10 1015.3 - 0.0
18/05:00am 21.2 17.0 1.5 27 9.1 S 13 17 7 9 1015.2 - 0.0
18/04:30am 21.2 17.4 2.0 28 9.0 S 11 13 6 7 1015.0 - 0.0
18/04:00am 21.5 17.8 2.2 28 9.1 S 11 13 6 7 1014.9 - 0.0
18/03:30am 22.1 18.0 2.2 27 9.4 S 13 15 7 8 1014.9 - 0.0
18/03:00am 23.3 19.4 3.3 27 9.7 S 13 17 7 9 1014.8 1013.7 0.0
18/02:30am 23.3 19.4 3.3 27 9.8 S 13 19 7 10 1014.9 - 0.0
18/02:00am 23.5 19.7 4.0 28 9.6 S 13 15 7 8 1015.1 - 0.0
18/01:30am 23.8 20.1 4.2 28 9.8 S 13 15 7 8 1015.3 - 0.0
18/01:00am 24.3 20.2 4.6 28 9.9 SSW 15 19 8 10 1015.4 - 0.0
18/12:30am 24.1 20.1 5.0 29 9.7 SSW 15 17 8 9 1015.6 - 0.0
18/12:00am 23.6 20.4 5.0 30 9.4 S 11 13 6 7 1015.7 1014.7 0.0
 
Date/Time
EST
Temp
°C
App
Temp
°C
Dew
Point
Rel
Hum
%
Delta-T
°C
Wind Press
QNH
hPa
Press
MSL
hPa
Rain
since 9 am
mm
Dir
 
Spd
km/h
Gust
km/h
Spd
kts
Gust
kts
17/11:30pm 24.3 21.2 5.6 30 9.6 S 11 11 6 6 1015.7 - 0.0
17/11:00pm 25.2 21.8 5.9 29 10.0 S 13 15 7 8 1015.7 - 0.0
17/10:30pm 25.0 21.6 5.7 29 9.9 SSW 13 13 7 7 1015.7 - 0.0
17/10:00pm 26.1 23.4 5.7 27 10.6 S 9 11 5 6 1015.5 - 0.0
17/09:30pm 26.7 23.6 5.6 26 11.0 SSE 11 13 6 7 1015.3 - 0.0
17/09:00pm 26.9 24.0 6.3 27 10.8 S 11 13 6 7 1015.1 1014.0 0.0
17/08:30pm 28.1 25.3 5.0 23 12.0 ESE 9 11 5 6 1014.7 - 0.0
17/08:00pm 29.5 26.6 4.9 21 12.8 SE 9 9 5 5 1014.4 - 0.0
17/07:30pm 30.4 27.5 4.9 20 13.4 SE 9 11 5 6 1013.8 - 0.0
17/07:00pm 31.3 28.4 4.9 19 13.9 SSE 9 13 5 7 1013.5 - 0.0
17/06:30pm 32.4 28.7 4.2 17 14.8 SSE 13 19 7 10 1013.1 - 0.0
17/06:00pm 33.3 29.7 5.0 17 15.1 SSE 13 17 7 9 1012.7 1011.7 0.0
17/05:30pm 34.0 30.5 5.5 17 15.4 SE 13 20 7 11 1012.5 - 0.0
17/05:00pm 34.4 31.0 5.8 17 15.6 SSE 13 20 7 11 1012.3 - 0.0
17/04:30pm 34.5 30.1 5.0 16 15.9 SSW 17 24 9 13 1012.3 - 0.0
17/04:00pm 34.3 29.5 5.8 17 15.5 SSE 20 32 11 17 1012.4 - 0.0
17/03:30pm 34.6 30.1 6.0 17 15.6 SE 19 33 10 18 1012.6 - 0.0
17/03:00pm 34.1 31.2 6.4 18 15.2 ESE 11 20 6 11 1012.9 1011.9 0.0
17/02:30pm 33.9 30.7 7.0 19 14.9 ESE 13 26 7 14 1013.1 - 0.0
17/02:00pm 33.8 30.1 6.2 18 15.1 ESE 15 22 8 12 1013.4 - 0.0
17/01:30pm 33.6 30.2 7.5 20 14.5 E 15 24 8 13 1013.9 - 0.0

Other Formats:

Comma delimited format used in spreadsheet applications
http://www.bom.gov.au/fwo/IDQ60801/IDQ60801.94335.axf

JavaScript Object Notation format (JSON) in row-major order
http://www.bom.gov.au/fwo/IDQ60801/IDQ60801.94335.json